首页
METAR-TAF:

METAR-TAF

机场 :

朱麗安娜公主國際機場

荷屬聖馬丁, 荷属安的列斯

纬度: 18-03N, 经度: 063-07W, 海拔: 4米

当前天气观测

该预报发布于46分钟前的23:00 UTC
风速9节,风向东北
温度 26°C
湿度 84%
气压 1019 hPa
能见度10公里或以上
散云层高于1800英尺

METAR: TNCM 012300Z 04009KT 9999 SCT018 26/23 Q1019 NOSIG

时间: 19:46 (23:46 UTC)

预报

该预报发布于1小时和46分钟前的22:00 UTC
预报有效从02日的 00点(UTC)到 02日的 24点(UTC)
风速11节,风向东北
能见度10公里或以上
散云层高于1800英尺
几率 40% :
短暂存在
从 02日的 06点(UTC)到 02日的 12点(UTC)
能見度: 6000
多云层高于1600英尺
阵雨,

TAF: TNCM 012200Z 0200/0224 05011KT 9999 SCT018 PROB40 TEMPO 0206/0212 6000 SHRA BKN016

超过4000个机场的气象观测和天气预报(METAR&TAF报告)。

可查询的气象台以黄色和红色小点在地图上表示。

将鼠标移到小点上方,可查看气象台名称。

然后点击查看天气观测和预报。

如需切换地图:点击带黑十字的绿色按钮放大地图;点击带横线的绿色按钮缩小地图;或者点击绿色箭头查看邻近地区的地图。


METAR-TAF: